Time;durP1;ratioP1;P1;durP2;ratioP2;P2;SDS_P1;SDS_P2;PMS_P1;PMS_P2;Temp;Humidity;BMP_temperature;BMP_pressure;BME280_temperature;BME280_humidity;BME280_pressure;Samples;Min_cycle;Max_cycle;Signal;HPM_P1;HPM_P2
2023/03/14 00:01:50;;;;;;;5.30;1.53;;;10.80;99.90;;;;;;5084204;28;20187;-84
2023/03/14 00:04:15;;;;;;;5.60;1.50;;;10.80;99.90;;;;;;5066100;28;20610;-83
2023/03/14 00:06:41;;;;;;;5.67;1.50;;;10.80;99.90;;;;;;5065433;28;20171;-84
2023/03/14 00:09:07;;;;;;;11.67;1.90;;;10.80;99.90;;;;;;5082339;28;20177;-83
2023/03/14 00:11:33;;;;;;;6.93;1.57;;;10.80;99.90;;;;;;5083822;28;20538;-84
2023/03/14 00:13:59;;;;;;;2.87;1.13;;;10.90;99.90;;;;;;5083947;28;20178;-84
2023/03/14 00:16:26;;;;;;;8.77;1.70;;;10.90;99.90;;;;;;5083582;28;20168;-84
2023/03/14 00:18:52;;;;;;;7.70;1.67;;;10.90;99.90;;;;;;5064801;28;20225;-84
2023/03/14 00:21:17;;;;;;;5.57;1.60;;;10.90;99.90;;;;;;5082597;28;20209;-84
2023/03/14 00:23:44;;;;;;;5.53;1.40;;;10.90;99.90;;;;;;5065295;28;20175;-84
2023/03/14 00:26:14;;;;;;;5.40;1.33;;;10.90;99.90;;;;;;5082805;28;20702;-84
2023/03/14 00:28:41;;;;;;;12.43;1.70;;;10.90;99.90;;;;;;5083912;28;20164;-84
2023/03/14 00:31:08;;;;;;;4.27;1.57;;;10.90;99.90;;;;;;5081653;28;20202;-84
2023/03/14 00:33:34;;;;;;;7.27;1.13;;;10.90;99.90;;;;;;5064234;28;20206;-84
2023/03/14 00:36:05;;;;;;;5.00;1.20;;;11.00;99.90;;;;;;5082102;28;20171;-84
2023/03/14 00:38:32;;;;;;;6.77;1.13;;;11.10;99.90;;;;;;5082367;28;20174;-85
2023/03/14 00:40:58;;;;;;;7.33;1.03;;;11.10;99.90;;;;;;5063998;28;20210;-82
2023/03/14 00:43:24;;;;;;;6.60;1.47;;;11.00;99.90;;;;;;5082976;28;20196;-82
2023/03/14 00:45:51;;;;;;;5.67;1.50;;;10.80;99.90;;;;;;5082944;28;20673;-81
2023/03/14 00:48:18;;;;;;;2.57;0.70;;;10.80;99.90;;;;;;5065052;28;20179;-82
2023/03/14 00:50:44;;;;;;;2.30;0.67;;;10.70;99.90;;;;;;5083144;28;20175;-83
2023/03/14 00:53:09;;;;;;;3.13;0.67;;;10.50;99.90;;;;;;5083505;28;20201;-83
2023/03/14 00:55:39;;;;;;;2.57;0.67;;;10.40;99.90;;;;;;5083449;28;20193;-83
2023/03/14 00:58:05;;;;;;;3.77;0.97;;;10.30;99.90;;;;;;5065115;28;20183;-84
2023/03/14 01:00:31;;;;;;;3.03;0.80;;;10.30;99.90;;;;;;5083168;28;20182;-83
2023/03/14 01:02:57;;;;;;;2.47;0.73;;;10.20;99.90;;;;;;5065894;28;20179;-82
2023/03/14 01:05:23;;;;;;;5.50;1.00;;;10.10;99.90;;;;;;5065357;28;20548;-82
2023/03/14 01:07:48;;;;;;;2.47;0.70;;;10.10;99.90;;;;;;5082514;28;20193;-82
2023/03/14 01:10:15;;;;;;;4.47;0.97;;;10.10;99.90;;;;;;5082459;28;20190;-82
2023/03/14 01:12:40;;;;;;;4.37;1.20;;;10.10;99.90;;;;;;5065327;28;20202;-82
2023/03/14 01:15:06;;;;;;;5.50;1.13;;;10.00;99.90;;;;;;5083838;28;20265;-83
2023/03/14 01:17:32;;;;;;;5.63;1.30;;;10.00;99.90;;;;;;5083195;28;20194;-83
2023/03/14 01:19:59;;;;;;;4.43;1.20;;;10.10;99.90;;;;;;5084235;28;20182;-83
2023/03/14 01:22:25;;;;;;;3.50;1.00;;;10.10;99.90;;;;;;5069062;28;20257;-83
2023/03/14 01:24:50;;;;;;;4.10;1.23;;;10.00;99.90;;;;;;5069992;28;20206;-83
2023/03/14 01:27:16;;;;;;;4.20;1.20;;;10.00;99.90;;;;;;5064951;28;20170;-84
2023/03/14 01:29:41;;;;;;;5.47;1.17;;;10.00;99.90;;;;;;5066182;28;20201;-83
2023/03/14 01:32:07;;;;;;;7.53;1.23;;;10.00;99.90;;;;;;5083151;28;20191;-83
2023/03/14 01:34:32;;;;;;;5.40;1.37;;;10.00;99.90;;;;;;5084627;28;20179;-83
2023/03/14 01:36:58;;;;;;;3.97;0.83;;;9.90;99.90;;;;;;5067065;28;20556;-84
2023/03/14 01:39:23;;;;;;;4.90;0.83;;;9.90;99.90;;;;;;5087389;28;20661;-83
2023/03/14 01:41:49;;;;;;;4.03;0.90;;;9.90;99.90;;;;;;5087713;28;20735;-82
2023/03/14 01:44:14;;;;;;;3.87;1.67;;;9.90;99.90;;;;;;5068549;28;20572;-83
2023/03/14 01:46:43;;;;;;;3.67;0.93;;;9.80;99.90;;;;;;5069087;28;20167;-83
2023/03/14 01:49:17;;;;;;;5.37;1.00;;;9.80;99.90;;;;;;5086248;28;20163;-83
2023/03/14 01:52:01;;;;;;;5.67;0.90;;;9.80;99.90;;;;;;5086615;28;20197;-83
2023/03/14 01:54:55;;;;;;;5.10;1.03;;;9.80;99.90;;;;;;5085901;28;20249;-83
2023/03/14 01:57:43;;;;;;;6.27;1.13;;;9.80;99.90;;;;;;5080420;28;20194;-83
2023/03/14 02:00:14;;;;;;;5.03;1.30;;;9.80;99.90;;;;;;5069103;28;20167;-83
2023/03/14 02:02:44;;;;;;;7.13;1.17;;;9.80;99.90;;;;;;5068147;28;20225;-84
2023/03/14 02:05:11;;;;;;;4.73;1.20;;;9.80;99.90;;;;;;5068782;28;20216;-83
2023/03/14 02:07:51;;;;;;;4.67;1.13;;;9.80;99.90;;;;;;5069082;28;20175;-83
2023/03/14 02:10:19;;;;;;;4.83;1.07;;;9.70;99.90;;;;;;5087568;28;20171;-83
2023/03/14 02:12:46;;;;;;;5.50;1.17;;;9.80;99.90;;;;;;5070282;28;20191;-83
2023/03/14 02:15:12;;;;;;;2.87;0.80;;;9.80;99.90;;;;;;5071087;28;20191;-83
2023/03/14 02:17:40;;;;;;;5.80;1.10;;;9.80;99.90;;;;;;5070974;28;20253;-83
2023/03/14 02:20:24;;;;;;;3.03;0.73;;;9.80;99.90;;;;;;5089231;28;20195;-83
2023/03/14 02:22:50;;;;;;;4.40;1.17;;;9.80;99.90;;;;;;5089347;28;20235;-82
2023/03/14 02:25:27;;;;;;;6.13;1.37;;;9.80;99.90;;;;;;5072117;28;20568;-83
2023/03/14 02:27:53;;;;;;;5.23;1.40;;;9.80;99.90;;;;;;5073945;28;20163;-84
2023/03/14 02:30:22;;;;;;;7.80;1.80;;;9.80;99.90;;;;;;5100823;28;20171;-85
2023/03/14 02:32:52;;;;;;;6.27;1.60;;;9.80;99.90;;;;;;5099720;28;20231;-84
2023/03/14 02:35:31;;;;;;;4.40;1.40;;;9.80;99.90;;;;;;5089792;28;20179;-83
2023/03/14 02:38:04;;;;;;;7.07;1.40;;;9.80;99.90;;;;;;5084393;28;20163;-83
2023/03/14 02:40:29;;;;;;;4.37;1.33;;;9.80;99.90;;;;;;5084434;28;20518;-83
2023/03/14 02:42:55;;;;;;;4.37;1.37;;;9.80;99.90;;;;;;5084005;28;20174;-83
2023/03/14 02:45:20;;;;;;;4.50;1.03;;;9.80;99.90;;;;;;5083048;28;20217;-83
2023/03/14 02:47:54;;;;;;;8.03;2.00;;;9.80;99.90;;;;;;5084688;28;20175;-84
2023/03/14 02:50:23;;;;;;;11.87;1.10;;;9.80;99.90;;;;;;5084706;28;20159;-82
2023/03/14 02:52:49;;;;;;;4.70;1.07;;;9.80;99.90;;;;;;5084163;28;20265;-83
2023/03/14 02:55:19;;;;;;;5.07;1.20;;;9.80;99.90;;;;;;5084270;28;20254;-83
2023/03/14 02:57:45;;;;;;;4.47;1.20;;;9.80;99.90;;;;;;5084222;28;20178;-83
2023/03/14 03:00:11;;;;;;;7.30;1.73;;;9.80;99.90;;;;;;5084060;28;20199;-82
2023/03/14 03:02:36;;;;;;;5.37;1.00;;;9.80;99.90;;;;;;5082976;28;20194;-83
2023/03/14 03:05:02;;;;;;;4.53;1.57;;;9.80;99.90;;;;;;5065576;28;20229;-83
2023/03/14 03:07:27;;;;;;;3.37;1.10;;;9.80;99.90;;;;;;5065510;28;20179;-83
2023/03/14 03:09:53;;;;;;;3.53;1.10;;;9.80;99.90;;;;;;5083035;28;20190;-83
2023/03/14 03:12:18;;;;;;;4.83;1.40;;;9.80;99.90;;;;;;5084067;28;20269;-83
2023/03/14 03:14:44;;;;;;;5.00;1.10;;;9.80;99.90;;;;;;5083728;28;20182;-83
2023/03/14 03:17:10;;;;;;;6.87;1.10;;;9.80;99.90;;;;;;5066107;28;20222;-83
2023/03/14 03:19:35;;;;;;;8.90;1.40;;;9.80;99.90;;;;;;5083098;28;20542;-83
2023/03/14 03:22:01;;;;;;;6.07;1.37;;;9.80;99.90;;;;;;5066683;28;20237;-83
2023/03/14 03:24:27;;;;;;;7.50;1.50;;;9.70;99.90;;;;;;5084770;28;20199;-83
2023/03/14 03:26:53;;;;;;;8.57;1.40;;;9.80;99.90;;;;;;5066392;28;20179;-84
2023/03/14 03:29:18;;;;;;;12.10;1.83;;;9.70;99.90;;;;;;5083601;28;20175;-84
2023/03/14 03:31:47;;;;;;;6.83;1.50;;;9.80;99.90;;;;;;5065037;28;20262;-83
2023/03/14 03:34:13;;;;;;;7.67;1.67;;;9.80;99.90;;;;;;5060508;28;20186;-85
2023/03/14 03:36:40;;;;;;;6.10;1.90;;;9.80;99.90;;;;;;5068080;28;20163;-84
2023/03/14 03:39:05;;;;;;;5.40;1.40;;;9.80;99.90;;;;;;5082095;28;20204;-85
2023/03/14 03:41:32;;;;;;;4.53;1.07;;;9.80;99.90;;;;;;5081811;28;20187;-85
2023/03/14 03:43:57;;;;;;;4.43;1.10;;;9.70;99.90;;;;;;5088766;28;20167;-84
2023/03/14 03:46:23;;;;;;;5.27;1.30;;;9.80;99.90;;;;;;5065619;28;20551;-83
2023/03/14 03:48:53;;;;;;;9.20;1.50;;;9.70;99.90;;;;;;5064746;28;20171;-84
2023/03/14 03:51:19;;;;;;;7.27;1.47;;;9.70;99.90;;;;;;5065460;28;20222;-84
2023/03/14 03:53:44;;;;;;;5.60;1.17;;;9.70;99.90;;;;;;5083695;28;20175;-83
2023/03/14 03:56:10;;;;;;;5.07;1.77;;;9.70;99.90;;;;;;5065492;28;20179;-83
2023/03/14 03:58:37;;;;;;;4.93;1.17;;;9.70;99.90;;;;;;5083125;28;20186;-83
2023/03/14 04:01:03;;;;;;;5.07;1.60;;;9.80;99.90;;;;;;5082553;28;20213;-84
2023/03/14 04:03:28;;;;;;;10.40;1.47;;;9.70;99.90;;;;;;5064703;28;20257;-84
2023/03/14 04:06:01;;;;;;;5.60;1.27;;;9.70;99.90;;;;;;5074493;28;20198;-83
2023/03/14 04:08:27;;;;;;;2.93;1.47;;;9.70;99.90;;;;;;5096163;28;20171;-84
2023/03/14 04:11:00;;;;;;;6.13;1.10;;;9.70;99.90;;;;;;5096652;28;20225;-85
2023/03/14 04:13:27;;;;;;;6.73;1.30;;;9.70;99.90;;;;;;5079912;28;20222;-85
2023/03/14 04:15:53;;;;;;;3.87;0.90;;;9.70;99.90;;;;;;5097816;28;20167;-84
2023/03/14 04:18:19;;;;;;;3.03;0.93;;;9.60;99.90;;;;;;5070698;28;20191;-86
2023/03/14 04:20:45;;;;;;;3.90;0.63;;;9.50;99.90;;;;;;5067860;28;20179;-85
2023/03/14 04:23:11;;;;;;;3.10;0.80;;;9.50;99.90;;;;;;5085501;28;20190;-85
2023/03/14 04:25:37;;;;;;;1.63;0.60;;;9.50;99.90;;;;;;5086681;28;20206;-84
2023/03/14 04:28:03;;;;;;;1.23;0.37;;;9.40;99.90;;;;;;5069115;28;20244;-84
2023/03/14 04:30:29;;;;;;;1.13;0.40;;;9.40;99.90;;;;;;5067819;28;20193;-84
2023/03/14 04:32:55;;;;;;;1.33;0.57;;;9.30;99.90;;;;;;5086372;28;20222;-84
2023/03/14 04:35:20;;;;;;;0.63;0.40;;;9.30;99.90;;;;;;5086882;28;20175;-84
2023/03/14 04:37:48;;;;;;;0.40;0.40;;;9.20;99.90;;;;;;5085525;28;20185;-84
2023/03/14 04:40:15;;;;;;;0.70;0.30;;;9.20;99.90;;;;;;5084279;28;20258;-84
2023/03/14 04:42:40;;;;;;;1.23;0.30;;;9.10;99.90;;;;;;5068377;28;20225;-83
2023/03/14 04:45:07;;;;;;;2.30;0.47;;;9.10;99.90;;;;;;5087929;28;20262;-83
2023/03/14 04:47:33;;;;;;;1.03;0.60;;;9.00;99.90;;;;;;5086574;28;20229;-83
2023/03/14 04:49:58;;;;;;;1.87;0.60;;;9.00;99.90;;;;;;5068763;28;20179;-84
2023/03/14 04:52:25;;;;;;;7.73;0.90;;;9.00;99.90;;;;;;5086740;28;20190;-84
2023/03/14 04:54:50;;;;;;;2.30;0.40;;;9.00;99.90;;;;;;5086047;28;20185;-83
2023/03/14 04:57:16;;;;;;;0.93;0.50;;;9.00;99.90;;;;;;5084806;28;20207;-84
2023/03/14 04:59:42;;;;;;;1.50;0.60;;;9.00;99.90;;;;;;5085799;28;20190;-83
2023/03/14 05:02:07;;;;;;;2.10;0.50;;;9.00;99.90;;;;;;5068575;28;20199;-83
2023/03/14 05:04:33;;;;;;;2.23;0.60;;;9.00;99.90;;;;;;5067417;28;20654;-84
2023/03/14 05:06:59;;;;;;;0.97;0.40;;;9.00;99.90;;;;;;5067456;28;20242;-84
2023/03/14 05:09:25;;;;;;;0.70;0.40;;;8.90;99.90;;;;;;5067717;28;20178;-83
2023/03/14 05:11:51;;;;;;;1.37;0.50;;;8.90;99.90;;;;;;5069041;28;20195;-83
2023/03/14 05:14:17;;;;;;;1.97;0.70;;;8.90;99.90;;;;;;5067973;28;20551;-83
2023/03/14 05:16:42;;;;;;;0.87;0.40;;;8.90;99.90;;;;;;5068085;28;20198;-83
2023/03/14 05:19:08;;;;;;;0.60;0.50;;;8.80;99.90;;;;;;5070190;28;20175;-83
2023/03/14 05:21:34;;;;;;;4.13;0.83;;;8.80;99.90;;;;;;5068015;28;20198;-83
2023/03/14 05:23:59;;;;;;;1.53;0.47;;;8.80;99.90;;;;;;5068140;28;20186;-83
2023/03/14 05:26:25;;;;;;;2.40;0.60;;;8.80;99.90;;;;;;5086005;28;20175;-84
2023/03/14 05:28:50;;;;;;;1.07;0.40;;;8.80;99.90;;;;;;5084767;28;20174;-83
2023/03/14 05:31:16;;;;;;;1.10;0.40;;;8.80;99.90;;;;;;5066434;28;20195;-84
2023/03/14 05:33:41;;;;;;;0.97;0.40;;;8.80;99.90;;;;;;5068082;28;20178;-83
2023/03/14 05:36:07;;;;;;;2.33;0.50;;;8.80;99.90;;;;;;5066795;28;20262;-84
2023/03/14 05:38:33;;;;;;;1.27;0.63;;;8.80;99.90;;;;;;5067486;28;20193;-83
2023/03/14 05:40:58;;;;;;;1.87;0.60;;;8.80;99.90;;;;;;5083651;28;20198;-79
2023/03/14 05:43:24;;;;;;;4.37;0.90;;;8.80;99.90;;;;;;5078777;28;20274;-81
2023/03/14 05:45:49;;;;;;;2.17;0.90;;;8.80;99.90;;;;;;5077926;28;20213;-81
2023/03/14 05:48:16;;;;;;;1.60;0.73;;;8.80;99.90;;;;;;5061894;28;20182;-84
2023/03/14 05:50:42;;;;;;;3.97;0.80;;;8.80;99.90;;;;;;5061079;28;20269;-83
2023/03/14 05:53:08;;;;;;;1.27;0.70;;;8.80;99.90;;;;;;5060360;28;20181;-84
2023/03/14 05:55:33;;;;;;;2.40;0.70;;;8.80;99.90;;;;;;5061295;28;20277;-84
2023/03/14 05:57:59;;;;;;;2.00;0.70;;;8.80;99.90;;;;;;5059970;28;20186;-84
2023/03/14 06:00:25;;;;;;;2.13;0.80;;;8.80;99.90;;;;;;5059963;28;20189;-82
2023/03/14 06:02:50;;;;;;;1.57;0.63;;;8.80;99.90;;;;;;5060096;28;20195;-82
2023/03/14 06:05:16;;;;;;;1.33;0.47;;;8.90;99.90;;;;;;5059288;28;20312;-81
2023/03/14 06:07:42;;;;;;;1.63;0.70;;;8.90;99.90;;;;;;5079744;28;20183;-82
2023/03/14 06:10:08;;;;;;;1.77;0.53;;;8.90;99.90;;;;;;5063533;28;20179;-82
2023/03/14 06:12:34;;;;;;;1.23;0.50;;;9.00;99.90;;;;;;5081575;28;20689;-79
2023/03/14 06:14:59;;;;;;;1.97;0.77;;;9.00;99.90;;;;;;5061339;28;20312;-79
2023/03/14 06:17:25;;;;;;;0.70;0.50;;;9.10;99.90;;;;;;5061630;28;20190;-79
2023/03/14 06:19:50;;;;;;;0.30;0.30;;;9.10;99.90;;;;;;5061560;28;20182;-79
2023/03/14 06:22:16;;;;;;;1.20;0.50;;;9.10;99.90;;;;;;5079216;28;20203;-79
2023/03/14 06:24:41;;;;;;;1.10;0.50;;;9.10;99.90;;;;;;5079624;28;20206;-79
2023/03/14 06:27:07;;;;;;;2.10;0.40;;;9.20;99.90;;;;;;5061191;28;20231;-79
2023/03/14 06:29:32;;;;;;;0.23;0.23;;;9.20;99.90;;;;;;5079212;28;20167;-79
2023/03/14 06:31:58;;;;;;;0.97;0.40;;;9.30;99.90;;;;;;5078085;28;20195;-79
2023/03/14 06:34:23;;;;;;;0.50;0.40;;;9.30;99.90;;;;;;5061279;28;20194;-80
2023/03/14 06:36:49;;;;;;;0.40;0.30;;;9.30;99.90;;;;;;5061100;28;20178;-79
2023/03/14 06:39:14;;;;;;;0.60;0.30;;;9.30;99.90;;;;;;5077617;28;20175;-79
2023/03/14 06:41:40;;;;;;;0.23;0.23;;;9.30;99.90;;;;;;5060905;28;20195;-79
2023/03/14 06:44:05;;;;;;;0.43;0.43;;;9.40;99.90;;;;;;5078206;28;20663;-79
2023/03/14 06:46:31;;;;;;;0.30;0.30;;;9.40;99.90;;;;;;5078396;28;20234;-79
2023/03/14 06:48:57;;;;;;;0.33;0.30;;;9.40;99.90;;;;;;5078359;28;20175;-78
2023/03/14 06:51:22;;;;;;;1.17;0.33;;;9.40;99.90;;;;;;5078771;28;20195;-79
2023/03/14 06:53:48;;;;;;;0.67;0.33;;;9.40;99.90;;;;;;5060620;28;20171;-80
2023/03/14 06:56:13;;;;;;;0.23;0.23;;;9.50;99.90;;;;;;5079634;28;20179;-79
2023/03/14 06:58:39;;;;;;;0.20;0.20;;;9.50;99.90;;;;;;5060876;28;20175;-79
2023/03/14 07:01:05;;;;;;;0.40;0.30;;;9.50;99.90;;;;;;5080438;28;20561;-79
2023/03/14 07:03:30;;;;;;;0.20;0.20;;;9.50;99.90;;;;;;5062151;28;20167;-79
2023/03/14 07:05:56;;;;;;;0.67;0.30;;;9.60;99.90;;;;;;5080467;28;20248;-78
2023/03/14 07:08:21;;;;;;;0.27;0.23;;;9.70;99.90;;;;;;5081116;28;20163;-79
2023/03/14 07:10:47;;;;;;;4.73;0.40;;;9.70;99.90;;;;;;5081017;28;20172;-79
2023/03/14 07:13:12;;;;;;;0.20;0.20;;;9.70;99.90;;;;;;5080929;28;20181;-79
2023/03/14 07:15:38;;;;;;;0.50;0.33;;;9.80;99.90;;;;;;5064018;28;20179;-79
2023/03/14 07:18:04;;;;;;;0.30;0.30;;;9.80;99.90;;;;;;5080306;28;20194;-79
2023/03/14 07:20:32;;;;;;;1.60;0.40;;;9.80;99.90;;;;;;5062543;28;20175;-79
2023/03/14 07:22:59;;;;;;;0.30;0.30;;;9.90;99.90;;;;;;5082001;28;20201;-78
2023/03/14 07:25:25;;;;;;;0.47;0.40;;;9.90;99.90;;;;;;5083057;28;20222;-79
2023/03/14 07:27:51;;;;;;;1.63;0.40;;;9.90;99.90;;;;;;5084576;28;20234;-78
2023/03/14 07:30:16;;;;;;;0.30;0.30;;;9.90;99.90;;;;;;5067022;28;20205;-78
2023/03/14 07:32:42;;;;;;;0.30;0.30;;;9.90;99.90;;;;;;5086589;28;20575;-79
2023/03/14 07:35:08;;;;;;;3.30;0.40;;;9.90;99.90;;;;;;5065338;28;20182;-79
2023/03/14 07:37:34;;;;;;;1.40;0.20;;;10.00;99.90;;;;;;5063972;28;20672;-79
2023/03/14 07:39:59;;;;;;;0.30;0.30;;;10.00;99.90;;;;;;5081159;28;20171;-80
2023/03/14 07:42:25;;;;;;;0.50;0.40;;;10.00;99.90;;;;;;5080261;28;20631;-79
2023/03/14 07:44:50;;;;;;;1.67;0.70;;;10.10;99.90;;;;;;5063693;28;20194;-79
2023/03/14 07:47:16;;;;;;;1.40;0.60;;;10.00;99.90;;;;;;5082371;28;20167;-79
2023/03/14 07:49:41;;;;;;;0.50;0.50;;;10.00;99.90;;;;;;5082821;28;20185;-79
2023/03/14 07:52:07;;;;;;;1.07;0.40;;;10.00;99.90;;;;;;5065863;28;20195;-79
2023/03/14 07:54:32;;;;;;;0.43;0.43;;;10.00;99.90;;;;;;5083537;28;20513;-79
2023/03/14 07:57:01;;;;;;;0.40;0.40;;;10.00;99.90;;;;;;5083615;28;20677;-79
2023/03/14 07:59:27;;;;;;;0.50;0.50;;;10.00;99.90;;;;;;5083458;28;20187;-79
2023/03/14 08:01:53;;;;;;;0.30;0.30;;;10.00;99.90;;;;;;5065777;28;20191;-79
2023/03/14 08:04:18;;;;;;;1.30;0.60;;;10.00;99.90;;;;;;5084184;28;20351;-79
2023/03/14 08:06:44;;;;;;;0.97;0.70;;;10.00;99.90;;;;;;5066075;28;20171;-80
2023/03/14 08:09:10;;;;;;;1.60;0.70;;;10.00;99.90;;;;;;5084110;28;20194;-78
2023/03/14 08:11:36;;;;;;;2.40;0.77;;;10.00;99.90;;;;;;5084611;28;20214;-79
2023/03/14 08:14:02;;;;;;;1.53;0.70;;;10.10;99.90;;;;;;5085194;28;20206;-79
2023/03/14 08:16:27;;;;;;;1.43;0.70;;;10.10;99.90;;;;;;5085548;28;20206;-79
2023/03/14 08:18:53;;;;;;;0.63;0.60;;;10.10;99.90;;;;;;5085799;28;20607;-79
2023/03/14 08:21:19;;;;;;;1.73;0.80;;;10.10;99.90;;;;;;5066957;28;20195;-79
2023/03/14 08:23:44;;;;;;;1.57;0.93;;;10.10;99.90;;;;;;5084606;28;20204;-79
2023/03/14 08:26:10;;;;;;;0.83;0.70;;;10.20;99.90;;;;;;5069929;28;20206;-78
2023/03/14 08:28:36;;;;;;;1.03;0.93;;;10.20;99.90;;;;;;5084549;28;20178;-79
2023/03/14 08:31:01;;;;;;;1.00;0.90;;;10.20;99.90;;;;;;5064938;28;20286;-79
2023/03/14 08:33:28;;;;;;;0.90;0.80;;;10.20;99.90;;;;;;5066010;28;20232;-80
2023/03/14 08:35:58;;;;;;;1.13;1.03;;;10.30;99.90;;;;;;5083280;28;20286;-79
2023/03/14 08:38:24;;;;;;;1.33;1.10;;;10.30;99.90;;;;;;5065602;28;20222;-79
2023/03/14 08:40:56;;;;;;;2.10;0.97;;;10.30;99.90;;;;;;5065600;28;20202;-79
2023/03/14 08:43:21;;;;;;;2.50;1.00;;;10.30;99.90;;;;;;5083755;28;20185;-80
2023/03/14 08:45:47;;;;;;;2.87;1.20;;;10.30;99.90;;;;;;5083556;28;20274;-79
2023/03/14 08:48:13;;;;;;;3.43;1.40;;;10.30;99.90;;;;;;5081411;28;20179;-81
2023/03/14 08:50:38;;;;;;;1.40;1.30;;;10.20;99.90;;;;;;5084918;28;20178;-79
2023/03/14 08:53:04;;;;;;;1.90;1.37;;;10.30;99.90;;;;;;5068239;28;20190;-79
2023/03/14 08:55:29;;;;;;;2.70;1.30;;;10.30;99.90;;;;;;5084729;28;20186;-79
2023/03/14 08:57:55;;;;;;;1.20;0.80;;;10.30;99.90;;;;;;5084315;28;20174;-80
2023/03/14 09:00:21;;;;;;;2.17;1.00;;;10.20;99.90;;;;;;5085447;28;20280;-80
2023/03/14 09:02:46;;;;;;;1.70;1.20;;;10.20;99.90;;;;;;5083592;28;20206;-80
2023/03/14 09:05:12;;;;;;;2.67;1.30;;;10.20;99.90;;;;;;5066318;28;20206;-80
2023/03/14 09:07:38;;;;;;;2.00;1.33;;;10.20;99.90;;;;;;5085317;28;20198;-79
2023/03/14 09:10:05;;;;;;;2.27;1.47;;;10.30;99.90;;;;;;5065256;28;20179;-80
2023/03/14 09:12:30;;;;;;;2.07;1.77;;;10.30;99.90;;;;;;5065090;28;20191;-81
2023/03/14 09:14:56;;;;;;;2.57;1.50;;;10.30;99.90;;;;;;5067683;28;20178;-80
2023/03/14 09:17:21;;;;;;;2.70;1.40;;;10.30;99.90;;;;;;5085046;28;20202;-79
2023/03/14 09:19:47;;;;;;;2.30;0.87;;;10.30;99.90;;;;;;5067208;28;20216;-80
2023/03/14 09:22:12;;;;;;;0.57;0.57;;;10.00;99.90;;;;;;5084907;28;20692;-79
2023/03/14 09:24:39;;;;;;;0.67;0.30;;;9.60;99.90;;;;;;5084770;28;20220;-79
2023/03/14 09:27:05;;;;;;;0.40;0.40;;;9.40;99.90;;;;;;5086131;28;20246;-78
2023/03/14 09:29:30;;;;;;;0.70;0.30;;;9.10;99.90;;;;;;5084192;28;20202;-80
2023/03/14 09:31:58;;;;;;;0.37;0.37;;;8.90;99.90;;;;;;5085647;28;20294;-79
2023/03/14 09:34:24;;;;;;;0.77;0.40;;;8.80;99.90;;;;;;5066990;28;20247;-79
2023/03/14 09:36:49;;;;;;;2.20;0.70;;;8.80;99.90;;;;;;5069289;28;20235;-79
2023/03/14 09:39:16;;;;;;;0.93;0.60;;;8.70;99.90;;;;;;5068938;28;20181;-79
2023/03/14 09:41:47;;;;;;;1.27;0.50;;;8.70;99.90;;;;;;5089046;28;20191;-79
2023/03/14 09:44:18;;;;;;;0.50;0.50;;;8.60;99.90;;;;;;5079912;28;20191;-79
2023/03/14 09:46:48;;;;;;;2.87;0.70;;;8.50;99.90;;;;;;5097871;28;20143;-79
2023/03/14 09:49:23;;;;;;;2.43;1.10;;;8.60;99.90;;;;;;5073292;28;20170;-79
2023/03/14 09:51:52;;;;;;;1.10;0.70;;;8.50;99.90;;;;;;5087234;28;20201;-80
2023/03/14 09:54:35;;;;;;;1.60;1.40;;;8.50;99.90;;;;;;5085778;28;20175;-79
2023/03/14 09:57:02;;;;;;;1.20;1.10;;;8.60;99.90;;;;;;5086979;28;20163;-79
2023/03/14 09:59:29;;;;;;;2.43;1.30;;;8.60;99.90;;;;;;5086282;28;20179;-79
2023/03/14 10:02:01;;;;;;;1.40;1.20;;;8.50;99.90;;;;;;5068885;28;20279;-79
2023/03/14 10:04:29;;;;;;;1.47;1.17;;;8.60;99.90;;;;;;5086613;28;20191;-79
2023/03/14 10:06:55;;;;;;;2.07;1.10;;;8.60;99.90;;;;;;5085168;28;20723;-79
2023/03/14 10:09:26;;;;;;;3.37;1.33;;;8.60;99.90;;;;;;5086399;28;20175;-80
2023/03/14 10:11:59;;;;;;;1.80;1.57;;;8.60;99.90;;;;;;5068909;28;20723;-79
2023/03/14 10:14:34;;;;;;;2.73;1.57;;;8.60;99.90;;;;;;5085635;28;20206;-80
2023/03/14 10:17:10;;;;;;;2.60;1.73;;;8.60;99.90;;;;;;5086270;28;20269;-79
2023/03/14 10:19:36;;;;;;;1.80;1.70;;;8.60;99.90;;;;;;5086412;28;20234;-79
2023/03/14 10:22:04;;;;;;;1.60;1.50;;;8.60;99.90;;;;;;5086294;28;20202;-79
2023/03/14 10:24:34;;;;;;;4.20;1.67;;;8.50;99.90;;;;;;5069736;28;20609;-79
2023/03/14 10:27:21;;;;;;;1.27;1.10;;;8.40;99.90;;;;;;5086413;28;20178;-79
2023/03/14 10:29:57;;;;;;;1.10;1.00;;;8.30;99.90;;;;;;5083537;28;20175;-78
2023/03/14 10:32:35;;;;;;;1.00;0.90;;;8.20;99.90;;;;;;5080605;28;20196;-78
2023/03/14 10:35:15;;;;;;;1.70;1.10;;;8.20;99.90;;;;;;5080359;28;20166;-78
2023/03/14 10:38:01;;;;;;;2.20;1.10;;;8.20;99.90;;;;;;5063152;28;20173;-78
2023/03/14 10:40:31;;;;;;;2.63;1.13;;;8.20;99.90;;;;;;5080383;28;20235;-78
2023/03/14 10:42:59;;;;;;;1.70;1.00;;;8.20;99.90;;;;;;5062815;28;20179;-78
2023/03/14 10:45:31;;;;;;;2.07;0.60;;;8.00;99.90;;;;;;5063289;28;20206;-79
2023/03/14 10:48:17;;;;;;;0.60;0.60;;;7.90;99.90;;;;;;5081775;28;20177;-79
2023/03/14 10:50:53;;;;;;;1.93;0.70;;;7.90;99.90;;;;;;5079728;28;20183;-78
2023/03/14 10:53:19;;;;;;;4.03;0.93;;;7.90;99.90;;;;;;5059762;28;20174;-79
2023/03/14 10:55:45;;;;;;;5.43;1.20;;;7.80;99.90;;;;;;5079967;28;20202;-78
2023/03/14 10:58:28;;;;;;;1.97;1.17;;;7.70;99.90;;;;;;5077150;28;20174;-77
2023/03/14 11:01:06;;;;;;;4.43;0.80;;;7.60;99.90;;;;;;5077566;28;20648;-78
2023/03/14 11:03:35;;;;;;;3.47;1.03;;;7.50;99.90;;;;;;5080190;28;20174;-78
2023/03/14 11:06:12;;;;;;;1.70;0.83;;;7.40;99.90;;;;;;5078714;28;20201;-78
2023/03/14 11:08:48;;;;;;;2.93;1.10;;;7.30;99.90;;;;;;5057713;28;20170;-78
2023/03/14 11:11:21;;;;;;;3.27;1.00;;;7.30;99.90;;;;;;5074029;28;20293;-77
2023/03/14 11:14:13;;;;;;;4.20;0.80;;;7.30;99.90;;;;;;5057834;28;20178;-78
2023/03/14 11:17:15;;;;;;;1.73;0.90;;;7.30;99.90;;;;;;5077600;28;20158;-77
2023/03/14 11:20:01;;;;;;;4.27;1.20;;;7.30;99.90;;;;;;5057567;28;20224;-78
2023/03/14 11:22:55;;;;;;;3.27;0.90;;;7.50;99.90;;;;;;5076878;28;20191;-78
2023/03/14 11:25:39;;;;;;;5.60;1.30;;;7.50;99.90;;;;;;5077778;28;20697;-78
2023/03/14 11:28:25;;;;;;;2.10;1.00;;;7.50;99.90;;;;;;5058946;28;20171;-78
2023/03/14 11:30:54;;;;;;;3.47;1.53;;;7.50;99.90;;;;;;5058597;28;20209;-78
2023/03/14 11:33:36;;;;;;;2.77;1.10;;;7.50;99.90;;;;;;5080499;28;20653;-77
2023/03/14 11:36:07;;;;;;;3.53;1.00;;;7.50;99.90;;;;;;5060532;28;20219;-78
2023/03/14 11:38:50;;;;;;;4.03;1.13;;;7.50;99.90;;;;;;5059605;28;20616;-78
2023/03/14 11:41:38;;;;;;;2.27;1.43;;;7.50;99.90;;;;;;5074730;28;20195;-78
2023/03/14 11:44:19;;;;;;;2.83;1.10;;;7.60;99.90;;;;;;5075413;28;20182;-77
2023/03/14 11:46:57;;;;;;;4.70;0.90;;;7.60;99.90;;;;;;5074113;28;20151;-78
2023/03/14 11:49:31;;;;;;;3.17;1.27;;;7.60;99.90;;;;;;5074249;28;20561;-78
2023/03/14 11:52:00;;;;;;;2.17;1.00;;;7.70;99.90;;;;;;5074674;28;20191;-78
2023/03/14 11:54:42;;;;;;;1.97;1.27;;;7.60;99.90;;;;;;5074200;28;20175;-78
2023/03/14 11:57:16;;;;;;;8.57;1.87;;;7.50;99.90;;;;;;5056149;28;20285;-78
2023/03/14 12:00:00;;;;;;;2.47;1.37;;;7.50;99.90;;;;;;5074594;28;20186;-78
2023/03/14 12:02:51;;;;;;;5.53;1.40;;;7.50;99.90;;;;;;5074556;28;20214;-78
2023/03/14 12:05:46;;;;;;;2.17;0.80;;;7.50;99.90;;;;;;5072772;28;20259;-78
2023/03/14 12:08:40;;;;;;;4.47;1.30;;;7.40;99.90;;;;;;5073608;28;20155;-79
2023/03/14 12:11:43;;;;;;;3.37;1.30;;;7.50;99.90;;;;;;5055522;28;20219;-78
2023/03/14 12:14:34;;;;;;;5.53;1.60;;;7.40;99.90;;;;;;5055932;28;20557;-78
2023/03/14 12:17:27;;;;;;;3.30;1.70;;;7.40;99.90;;;;;;5073591;28;20187;-78
2023/03/14 12:20:20;;;;;;;9.77;1.73;;;7.50;99.90;;;;;;5073021;28;20187;-77
2023/03/14 12:22:51;;;;;;;8.93;1.97;;;7.70;99.90;;;;;;5073549;28;20274;-78
2023/03/14 12:25:26;;;;;;;10.80;3.13;;;7.80;99.90;;;;;;5055516;28;20213;-78
2023/03/14 12:27:54;;;;;;;6.20;2.10;;;7.90;99.90;;;;;;5073716;28;20157;-78
2023/03/14 12:30:38;;;;;;;7.83;1.90;;;8.00;99.90;;;;;;5073929;28;20531;-78
2023/03/14 12:33:10;;;;;;;6.47;1.30;;;8.00;99.90;;;;;;5056581;28;20563;-78
2023/03/14 12:35:38;;;;;;;7.70;2.00;;;8.00;99.90;;;;;;5055981;28;20209;-78
2023/03/14 12:38:08;;;;;;;11.63;2.20;;;8.00;99.90;;;;;;5073599;28;20213;-78
2023/03/14 12:40:41;;;;;;;9.00;2.17;;;8.00;7.10;;;;;;5074775;28;20194;-78
2023/03/14 12:43:25;;;;;;;6.20;1.60;;;8.00;99.90;;;;;;5074109;28;20166;-78
2023/03/14 12:46:20;;;;;;;9.00;1.57;;;7.90;99.90;;;;;;5055750;28;20199;-78
2023/03/14 12:48:53;;;;;;;5.40;1.33;;;7.90;99.90;;;;;;5056894;28;20166;-78
2023/03/14 12:51:28;;;;;;;4.13;1.23;;;7.70;1.00;;;;;;5073756;28;20195;-77
2023/03/14 12:54:04;;;;;;;9.07;1.80;;;7.60;28.70;;;;;;5074360;28;20166;-78
2023/03/14 12:56:46;;;;;;;7.43;1.50;;;7.50;20.10;;;;;;5074510;28;20600;-78
2023/03/14 12:59:35;;;;;;;8.83;1.90;;;7.40;20.60;;;;;;5073253;28;20155;-78
2023/03/14 13:02:06;;;;;;;8.37;2.33;;;7.50;99.90;;;;;;5073209;28;20235;-78
2023/03/14 13:04:36;;;;;;;11.13;2.97;;;7.50;1.00;;;;;;5055428;28;20194;-78
2023/03/14 13:07:03;;;;;;;9.80;2.57;;;7.60;67.50;;;;;;5073823;28;20217;-78